CheckWX is a tool to help pilots better visualize weather data.  It is not intended as a substitute for an official pre-flight weather briefing.

11:04:44 UTC

KBLF TAF
Mercer County Airport
Bluefield, West Virginia, USA
KBLF 031120Z 0312/0412 31008KT P6SM SKC FM031400 31012G22KT P6SM SKC FM032200 31010KT P6SM SKC FM040200 29005KT P6SM SKC

Apr-3@
12:00 UTC

Apr-3 @ 12:00 UTC

Apr-3@
14:00 UTC

Apr-3 @ 14:00 UTC

TAF KBLF 031120Z 0312/0412 31008KT P6SM SKC

Expired

Wind
  • 310° at 8 KTS
Cloud Levels
  • Clear skies

Apr-3@
14:00 UTC

Apr-3 @ 14:00 UTC

Apr-3@
22:00 UTC

Apr-3 @ 22:00 UTC

FM031400 31012G22KT P6SM SKC

Expired

Wind
  • 310° at 12 KTS
  • {Gusting to 22 KTS
Cloud Levels
  • Clear skies

Apr-3@
22:00 UTC

Apr-3 @ 22:00 UTC

Apr-4@
02:00 UTC

Apr-4 @ 02:00 UTC

FM032200 31010KT P6SM SKC

Expired

Wind
  • 310° at 10 KTS
Cloud Levels
  • Clear skies

Apr-4@
02:00 UTC

Apr-4 @ 02:00 UTC

Apr-4@
12:00 UTC

Apr-4 @ 12:00 UTC

FM040200 29005KT P6SM SKC

From

From Standard forecast or significant change

Wind
  • 290° at 5 KTS
Cloud Levels
  • Clear skies